Time;durP1;ratioP1;P1;durP2;ratioP2;P2;SDS_P1;SDS_P2;PMS_P1;PMS_P2;Temp;Humidity;BMP_temperature;BMP_pressure;BME280_temperature;BME280_humidity;BME280_pressure;Samples;Min_cycle;Max_cycle;Signal;HPM_P1;HPM_P2
2024/02/04 00:00:31;;;;;;;14.47;3.50;;;;;;;-0.92;100.00;98303.16;5053109;28;20056;-68
2024/02/04 00:02:57;;;;;;;4.90;2.60;;;;;;;-1.21;100.00;98261.59;5052955;28;20037;-69
2024/02/04 00:05:22;;;;;;;8.57;3.17;;;;;;;-1.19;100.00;98280.53;5051879;28;20043;-67
2024/02/04 00:07:48;;;;;;;8.27;3.13;;;;;;;-1.22;100.00;98288.66;5052649;28;20044;-67
2024/02/04 00:10:15;;;;;;;9.93;2.97;;;;;;;-1.17;100.00;98298.66;5052489;28;20123;-67
2024/02/04 00:12:42;;;;;;;4.80;2.70;;;;;;;-1.31;100.00;98281.72;5051623;28;20124;-68
2024/02/04 00:15:08;;;;;;;9.53;3.37;;;;;;;-1.69;100.00;98231.44;5053249;28;20275;-66
2024/02/04 00:17:34;;;;;;;8.97;3.40;;;;;;;-1.32;100.00;98296.56;5052014;28;20272;-65
2024/02/04 00:20:01;;;;;;;7.20;3.20;;;;;;;-1.44;100.00;98274.28;5053336;28;20396;-67
2024/02/04 00:22:27;;;;;;;10.37;3.10;;;;;;;-1.43;100.00;98280.31;5051544;28;20037;-64
2024/02/04 00:24:52;;;;;;;10.77;3.33;;;;;;;-1.43;100.00;98285.53;5051100;28;20619;-67
2024/02/04 00:27:18;;;;;;;8.00;3.10;;;;;;;-1.42;100.00;98263.69;5051453;28;20275;-67
2024/02/04 00:29:44;;;;;;;9.07;3.33;;;;;;;-1.64;100.00;98216.16;5052663;28;20473;-66
2024/02/04 00:32:10;;;;;;;15.77;4.20;;;;;;;-1.26;100.00;98269.03;5052964;28;20087;-66
2024/02/04 00:34:35;;;;;;;6.47;3.07;;;;;;;-1.18;100.00;98276.94;5052575;28;20353;-66
2024/02/04 00:37:01;;;;;;;8.67;3.97;;;;;;;-1.06;100.00;98290.63;5052091;28;20078;-67
2024/02/04 00:39:26;;;;;;;8.23;3.83;;;;;;;-1.23;100.00;98268.75;5051943;28;20042;-67
2024/02/04 00:41:52;;;;;;;8.53;3.47;;;;;;;-1.16;100.00;98269.78;5052438;28;20044;-66
2024/02/04 00:44:17;;;;;;;6.57;3.20;;;;;;;-1.17;100.00;98272.53;5051177;28;20029;-66
2024/02/04 00:46:44;;;;;;;8.67;3.10;;;;;;;-1.29;100.00;98261.50;5052455;28;20029;-71
2024/02/04 00:49:09;;;;;;;7.27;3.20;;;;;;;-1.25;100.00;98271.50;5052094;28;20515;-70
2024/02/04 00:51:35;;;;;;;9.47;3.33;;;;;;;-1.32;100.00;98272.25;5051843;28;20268;-72
2024/02/04 00:54:00;;;;;;;9.93;3.10;;;;;;;-1.52;100.00;98247.25;5050624;28;20040;-66
2024/02/04 00:56:26;;;;;;;6.30;3.30;;;;;;;-1.48;100.00;98264.25;5052157;28;20033;-66
2024/02/04 00:58:51;;;;;;;5.73;2.60;;;;;;;-1.52;100.00;98262.91;5052220;28;20120;-67
2024/02/04 01:01:17;;;;;;;9.17;2.73;;;;;;;-1.59;100.00;98273.94;5050880;28;20056;-67
2024/02/04 01:03:42;;;;;;;11.33;2.80;;;;;;;-1.64;100.00;98265.72;5051886;28;20029;-68
2024/02/04 01:06:08;;;;;;;6.57;2.70;;;;;;;-1.73;100.00;98253.56;5052730;28;20032;-68
2024/02/04 01:08:34;;;;;;;6.77;2.87;;;;;;;-1.60;100.00;98281.91;5051831;28;20055;-65
2024/02/04 01:11:00;;;;;;;5.73;2.67;;;;;;;-1.57;100.00;98277.22;5051870;28;20032;-67
2024/02/04 01:13:27;;;;;;;5.77;2.63;;;;;;;-1.61;100.00;98264.63;5052278;28;20275;-66
2024/02/04 01:15:52;;;;;;;7.37;3.07;;;;;;;-1.67;100.00;98246.94;5050516;28;20039;-66
2024/02/04 01:18:18;;;;;;;7.83;3.73;;;;;;;-1.62;100.00;98260.34;5051529;28;20658;-67
2024/02/04 01:20:44;;;;;;;11.57;3.20;;;;;;;-1.65;100.00;98264.09;5051621;28;20485;-66
2024/02/04 01:23:09;;;;;;;9.67;3.30;;;;;;;-1.69;100.00;98265.34;5051676;28;20556;-66
2024/02/04 01:25:35;;;;;;;7.67;3.57;;;;;;;-1.75;100.00;98267.69;5033977;28;20037;-67
2024/02/04 01:28:00;;;;;;;6.97;2.97;;;;;;;-1.80;100.00;98268.13;5051583;28;20040;-68
2024/02/04 01:30:25;;;;;;;8.90;2.80;;;;;;;-1.82;100.00;98280.50;5051521;28;20048;-67
2024/02/04 01:32:51;;;;;;;6.63;2.90;;;;;;;-1.76;100.00;98290.34;5050433;28;20430;-67
2024/02/04 01:35:16;;;;;;;4.57;2.20;;;;;;;-1.75;100.00;98294.63;5052263;28;20044;-66
2024/02/04 01:37:43;;;;;;;14.27;3.00;;;;;;;-1.78;100.00;98294.91;5052932;28;20039;-66
2024/02/04 01:40:09;;;;;;;9.53;2.67;;;;;;;-1.87;100.00;98287.94;5051528;28;20392;-67
2024/02/04 01:42:35;;;;;;;11.00;3.43;;;;;;;-1.91;100.00;98299.66;5051535;28;20307;-67
2024/02/04 01:45:00;;;;;;;7.63;2.90;;;;;;;-2.04;100.00;98286.91;5051478;28;20349;-66
2024/02/04 01:47:26;;;;;;;8.13;3.00;;;;;;;-2.02;100.00;98300.66;5051387;28;20063;-67
2024/02/04 01:49:51;;;;;;;9.57;3.63;;;;;;;-2.15;100.00;98275.84;5051313;28;20060;-65
2024/02/04 01:52:17;;;;;;;10.47;2.80;;;;;;;-2.07;100.00;98294.22;5051354;28;20484;-66
2024/02/04 01:54:43;;;;;;;9.47;2.40;;;;;;;-2.26;100.00;98264.66;5050980;28;20037;-67
2024/02/04 01:57:10;;;;;;;10.27;3.57;;;;;;;-2.15;100.00;98281.88;5051200;28;20681;-69
2024/02/04 01:59:39;;;;;;;14.43;3.57;;;;;;;-2.31;100.00;98253.84;5051127;28;20624;-70
2024/02/04 02:02:05;;;;;;;6.38;2.85;;;;;;;-2.22;100.00;98271.22;5051264;28;20282;-68
2024/02/04 02:04:31;;;;;;;7.93;3.70;;;;;;;-2.16;100.00;98277.63;5050977;28;20041;-68
2024/02/04 02:06:59;;;;;;;8.33;2.50;;;;;;;-2.20;100.00;98269.28;5051294;28;20777;-69
2024/02/04 02:09:26;;;;;;;7.15;2.40;;;;;;;-2.23;100.00;98264.34;5051034;28;20266;-67
2024/02/04 02:12:22;;;;;;;9.13;2.80;;;;;;;-2.20;100.00;98271.06;5050059;28;20040;-67
2024/02/04 02:14:56;;;;;;;7.10;3.03;;;;;;;-2.31;100.00;98247.78;5048770;28;20282;-66
2024/02/04 02:17:48;;;;;;;8.23;2.53;;;;;;;-2.32;100.00;98236.50;5049902;28;20278;-66
2024/02/04 02:21:05;;;;;;;10.07;2.80;;;;;;;-2.16;100.00;98274.22;5051199;28;20303;-64
2024/02/04 02:23:36;;;;;;;5.17;2.60;;;;;;;-2.35;100.00;98235.97;5055545;28;20759;-68
2024/02/04 02:26:04;;;;;;;12.50;3.47;;;;;;;-2.25;100.00;98253.25;5055125;28;20274;-66
2024/02/04 02:28:29;;;;;;;8.47;2.87;;;;;;;-2.22;100.00;98247.75;5054622;28;20351;-67
2024/02/04 02:30:55;;;;;;;7.37;2.90;;;;;;;-2.22;100.00;98239.09;5054672;28;20358;-68
2024/02/04 02:33:20;;;;;;;7.53;2.80;;;;;;;-2.23;100.00;98227.84;5053956;28;20080;-68
2024/02/04 02:35:52;;;;;;;9.37;3.00;;;;;;;-2.01;100.00;98246.72;5053362;28;20102;-68
2024/02/04 02:38:26;;;;;;;7.77;2.90;;;;;;;-2.26;100.00;98206.47;5053621;28;20044;-68
2024/02/04 02:40:58;;;;;;;9.57;3.80;;;;;;;-1.90;100.00;98269.97;5054578;28;20278;-67
2024/02/04 02:43:24;;;;;;;7.90;3.50;;;;;;;-2.02;100.00;98240.69;5054568;28;20259;-68
2024/02/04 02:45:50;;;;;;;8.17;2.50;;;;;;;-1.99;100.00;98247.38;5054279;28;20336;-65
2024/02/04 02:48:16;;;;;;;6.33;3.27;;;;;;;-1.99;100.00;98247.38;5053938;28;20263;-66
2024/02/04 02:50:42;;;;;;;6.77;3.10;;;;;;;-1.92;100.00;98251.06;5052628;28;20436;-67
2024/02/04 02:53:07;;;;;;;7.07;3.10;;;;;;;-2.03;100.00;98232.97;5054504;28;20263;-66
2024/02/04 02:55:32;;;;;;;10.33;3.37;;;;;;;-1.89;100.00;98250.75;5054221;28;20044;-67
2024/02/04 02:57:58;;;;;;;5.87;2.40;;;;;;;-1.82;100.00;98256.22;5054746;28;20513;-70
2024/02/04 03:00:23;;;;;;;7.10;4.23;;;;;;;-1.77;100.00;98260.03;5052958;28;20095;-69
2024/02/04 03:02:49;;;;;;;15.43;4.13;;;;;;;-1.77;100.00;98257.41;5054014;28;20040;-67
2024/02/04 03:05:18;;;;;;;9.03;3.23;;;;;;;-1.94;100.00;98222.50;5052655;28;20036;-66
2024/02/04 03:07:43;;;;;;;11.27;4.25;;;;;;;-1.98;100.00;98230.78;5053865;28;20033;-69
2024/02/04 03:10:09;;;;;;;9.80;3.23;;;;;;;-2.09;100.00;98218.72;5054129;28;20073;-65
2024/02/04 03:12:34;;;;;;;9.73;2.93;;;;;;;-2.01;100.00;98226.66;5053971;28;20044;-66
2024/02/04 03:15:00;;;;;;;13.43;3.07;;;;;;;-2.03;100.00;98235.56;5054086;28;20060;-70
2024/02/04 03:17:25;;;;;;;9.27;3.10;;;;;;;-2.04;100.00;98241.75;5052495;28;20036;-65
2024/02/04 03:19:54;;;;;;;9.93;3.50;;;;;;;-2.16;100.00;98229.88;5054364;28;20142;-69
2024/02/04 03:22:21;;;;;;;10.20;3.83;;;;;;;-2.20;100.00;98229.34;5054823;28;20072;-66
2024/02/04 03:24:47;;;;;;;6.77;3.20;;;;;;;-2.31;100.00;98219.13;5053208;28;20044;-66
2024/02/04 03:27:12;;;;;;;15.17;2.90;;;;;;;-2.23;100.00;98227.03;5052459;28;20260;-65
2024/02/04 03:29:38;;;;;;;9.53;3.90;;;;;;;-2.10;100.00;98247.56;5052687;28;20284;-66
2024/02/04 03:32:04;;;;;;;10.47;3.40;;;;;;;-2.15;100.00;98234.94;5053340;28;20094;-67
2024/02/04 03:34:29;;;;;;;12.37;3.57;;;;;;;-2.11;100.00;98248.53;5053275;28;20119;-65
2024/02/04 03:36:55;;;;;;;12.43;4.57;;;;;;;-2.15;100.00;98236.75;5053444;28;20105;-67
2024/02/04 03:39:20;;;;;;;5.07;3.33;;;;;;;-2.12;100.00;98236.44;5052277;28;20041;-67
2024/02/04 03:41:46;;;;;;;11.13;3.17;;;;;;;-2.02;100.00;98226.81;5052215;28;20037;-69
2024/02/04 03:44:11;;;;;;;11.13;3.63;;;;;;;-2.05;100.00;98209.66;5053439;28;20049;-66
2024/02/04 03:46:39;;;;;;;11.27;3.40;;;;;;;-1.94;100.00;98232.13;5053103;28;20036;-65
2024/02/04 03:49:06;;;;;;;6.85;3.10;;;;;;;-2.12;100.00;98197.34;5053116;28;20037;-67
2024/02/04 03:51:32;;;;;;;8.13;3.00;;;;;;;-2.12;100.00;98192.13;5053267;28;20071;-66
2024/02/04 03:53:57;;;;;;;7.83;2.77;;;;;;;-2.05;100.00;98220.06;5053244;28;20295;-67
2024/02/04 03:56:23;;;;;;;8.07;3.23;;;;;;;-2.12;100.00;98203.38;5052952;28;20094;-67
2024/02/04 03:58:48;;;;;;;9.53;4.23;;;;;;;-2.12;100.00;98192.13;5052935;28;20135;-66
2024/02/04 04:01:14;;;;;;;11.77;3.40;;;;;;;-2.17;100.00;98184.75;5053014;28;20072;-66
2024/02/04 04:03:40;;;;;;;10.00;3.40;;;;;;;-2.16;100.00;98191.59;5052941;28;20132;-66
2024/02/04 04:06:06;;;;;;;9.03;3.70;;;;;;;-2.10;100.00;98206.66;5052816;28;20485;-66
2024/02/04 04:08:31;;;;;;;8.33;3.23;;;;;;;-2.15;100.00;98188.03;5052934;28;20332;-67
2024/02/04 04:10:57;;;;;;;12.90;3.10;;;;;;;-2.15;100.00;98187.19;5052883;28;20033;-68
2024/02/04 04:13:22;;;;;;;8.97;3.30;;;;;;;-2.19;100.00;98182.28;5052979;28;20037;-67
2024/02/04 04:15:48;;;;;;;10.43;3.27;;;;;;;-2.26;100.00;98164.75;5053308;28;20552;-68
2024/02/04 04:18:13;;;;;;;8.63;3.20;;;;;;;-2.11;100.00;98188.53;5053665;28;20039;-69
2024/02/04 04:20:40;;;;;;;7.17;2.93;;;;;;;-2.09;100.00;98178.78;5054260;28;20061;-66
2024/02/04 04:23:06;;;;;;;12.67;3.20;;;;;;;-2.09;100.00;98182.22;5053247;28;20041;-66
2024/02/04 04:25:32;;;;;;;6.97;3.70;;;;;;;-2.15;100.00;98156.72;5053043;28;20275;-67
2024/02/04 04:27:58;;;;;;;6.40;2.90;;;;;;;-2.08;100.00;98172.59;5054735;28;20538;-66
2024/02/04 04:30:23;;;;;;;12.30;3.20;;;;;;;-2.20;100.00;98158.97;5054567;28;20041;-67
2024/02/04 04:32:49;;;;;;;9.37;2.80;;;;;;;-2.30;100.00;98138.16;5053334;28;20379;-67
2024/02/04 04:35:15;;;;;;;9.67;3.13;;;;;;;-2.16;100.00;98164.69;5053126;28;20089;-65
2024/02/04 04:37:40;;;;;;;8.07;3.03;;;;;;;-2.15;100.00;98171.56;5052879;28;20484;-66
2024/02/04 04:40:06;;;;;;;4.93;3.23;;;;;;;-2.31;100.00;98146.94;5052825;28;20045;-66
2024/02/04 04:42:32;;;;;;;9.30;4.07;;;;;;;-2.20;100.00;98158.97;5052019;28;20476;-68
2024/02/04 04:44:57;;;;;;;8.17;2.97;;;;;;;-2.33;100.00;98137.59;5051957;28;20279;-68
2024/02/04 04:47:22;;;;;;;10.37;3.40;;;;;;;-2.32;100.00;98141.84;5052267;28;20120;-67
2024/02/04 04:49:48;;;;;;;8.50;3.43;;;;;;;-2.39;100.00;98136.41;5052508;28;20091;-65
2024/02/04 04:52:14;;;;;;;9.33;3.20;;;;;;;-2.34;100.00;98142.00;5051008;28;20511;-68
2024/02/04 04:54:39;;;;;;;5.10;3.77;;;;;;;-2.57;100.00;98110.31;5050851;28;20047;-67
2024/02/04 04:57:05;;;;;;;9.10;3.70;;;;;;;-2.36;100.00;98146.53;5052420;28;20469;-67
2024/02/04 04:59:31;;;;;;;8.00;4.37;;;;;;;-2.46;100.00;98131.94;5050716;28;20029;-67
2024/02/04 05:01:56;;;;;;;8.93;4.40;;;;;;;-2.37;100.00;98146.69;5051795;28;20478;-69
2024/02/04 05:04:25;;;;;;;8.87;4.50;;;;;;;-2.35;100.00;98153.41;5034262;28;20045;-67
2024/02/04 05:06:51;;;;;;;11.02;5.07;;;;;;;-2.36;100.00;98170.00;5051740;28;20119;-68
2024/02/04 05:09:17;;;;;;;7.27;3.23;;;;;;;-2.46;100.00;98152.78;5051879;28;20036;-68
2024/02/04 05:11:42;;;;;;;6.17;3.33;;;;;;;-2.43;100.00;98139.44;5051604;28;20301;-67
2024/02/04 05:14:08;;;;;;;6.20;3.63;;;;;;;-2.21;100.00;98149.50;5033557;28;20144;-66
2024/02/04 05:16:35;;;;;;;6.67;3.57;;;;;;;-1.98;100.00;98165.56;5050645;28;20082;-67
2024/02/04 05:19:04;;;;;;;5.87;3.43;;;;;;;-1.97;100.00;98154.16;5051026;28;20052;-67
2024/02/04 05:21:29;;;;;;;8.80;3.47;;;;;;;-1.73;100.00;98164.03;5051325;28;20292;-66
2024/02/04 05:23:55;;;;;;;8.73;2.90;;;;;;;-1.63;100.00;98173.41;5051558;28;20039;-67
2024/02/04 05:26:20;;;;;;;6.43;2.60;;;;;;;-1.83;100.00;98124.94;5051711;28;20537;-67
2024/02/04 05:28:46;;;;;;;8.07;3.43;;;;;;;-1.51;100.00;98160.94;5051255;28;20025;-67
2024/02/04 05:31:12;;;;;;;5.73;3.50;;;;;;;-1.47;100.00;98156.25;5051218;28;20037;-67
2024/02/04 05:33:37;;;;;;;4.17;2.87;;;;;;;-1.34;100.00;98157.53;5051705;28;20041;-68
2024/02/04 05:36:03;;;;;;;3.37;2.80;;;;;;;-1.32;100.00;98131.25;5051052;28;20037;-69
2024/02/04 05:38:29;;;;;;;4.60;3.13;;;;;;;-1.17;100.00;98142.78;5051218;28;20124;-67
2024/02/04 05:40:55;;;;;;;16.53;3.90;;;;;;;-1.11;100.00;98152.66;5033394;28;20790;-70
2024/02/04 05:43:21;;;;;;;6.57;3.50;;;;;;;-1.06;100.00;98171.28;5049803;28;20473;-67
2024/02/04 05:45:46;;;;;;;7.50;4.30;;;;;;;-1.11;100.00;98167.50;5049766;28;20040;-69
2024/02/04 05:48:13;;;;;;;9.87;4.33;;;;;;;-1.17;100.00;98166.28;5051350;28;20267;-67
2024/02/04 05:50:38;;;;;;;7.53;3.70;;;;;;;-1.14;100.00;98158.19;5051221;28;20033;-68
2024/02/04 05:53:04;;;;;;;8.00;4.67;;;;;;;-1.13;100.00;98159.00;5051066;28;20263;-70
2024/02/04 05:55:29;;;;;;;9.20;5.13;;;;;;;-1.22;100.00;98146.84;5052088;28;20043;-69
2024/02/04 05:57:55;;;;;;;15.77;8.00;;;;;;;-1.29;100.00;98139.59;5055590;28;20041;-68
2024/02/04 06:00:20;;;;;;;14.07;5.57;;;;;;;-1.15;100.00;98158.34;5055078;28;20043;-67
2024/02/04 06:02:46;;;;;;;11.73;6.10;;;;;;;-1.23;100.00;98158.25;5053835;28;20037;-69
2024/02/04 06:05:13;;;;;;;13.73;6.20;;;;;;;-2.02;100.00;98052.06;5055115;28;20037;-68
2024/02/04 06:07:38;;;;;;;15.07;6.50;;;;;;;-1.32;100.00;98160.81;5055196;28;20037;-67
2024/02/04 06:10:04;;;;;;;12.63;6.90;;;;;;;-1.41;100.00;98160.91;5051030;28;20271;-68
2024/02/04 06:12:30;;;;;;;19.03;8.43;;;;;;;-1.43;100.00;98162.84;5054144;28;20032;-67
2024/02/04 06:14:55;;;;;;;14.43;7.13;;;;;;;-1.50;100.00;98151.34;5053268;28;20790;-64
2024/02/04 06:17:21;;;;;;;20.97;8.97;;;;;;;-1.57;100.00;98136.28;5054535;28;20045;-69
2024/02/04 06:19:48;;;;;;;13.40;7.23;;;;;;;-1.66;100.00;98111.09;5054487;28;20147;-66
2024/02/04 06:22:16;;;;;;;14.73;7.80;;;;;;;-1.52;100.00;98127.19;5054654;28;20047;-68
2024/02/04 06:24:42;;;;;;;16.27;7.18;;;;;;;-1.38;100.00;98139.72;5054525;28;20691;-70
2024/02/04 06:27:08;;;;;;;15.67;7.57;;;;;;;-1.23;100.00;98163.47;5054498;28;20073;-68
2024/02/04 06:29:34;;;;;;;15.50;8.73;;;;;;;-1.17;100.00;98150.63;5055248;28;20033;-68
2024/02/04 06:32:00;;;;;;;16.97;8.53;;;;;;;-1.33;100.00;98114.78;5054840;28;20267;-68
2024/02/04 06:34:25;;;;;;;14.80;8.67;;;;;;;-1.13;100.00;98135.50;5053503;28;20064;-70
2024/02/04 06:36:51;;;;;;;18.23;8.93;;;;;;;-1.02;100.00;98141.28;5053395;28;20037;-67
2024/02/04 06:39:16;;;;;;;20.17;10.30;;;;;;;-1.13;100.00;98120.63;5054553;28;20044;-68
2024/02/04 06:41:42;;;;;;;16.47;9.47;;;;;;;-0.91;100.00;98147.22;5054121;28;20037;-65
2024/02/04 06:44:08;;;;;;;20.07;9.77;;;;;;;-0.91;100.00;98141.97;5054218;28;20404;-68
2024/02/04 06:46:34;;;;;;;16.40;8.80;;;;;;;-0.81;100.00;98147.94;5054439;28;20055;-67
2024/02/04 06:48:59;;;;;;;22.07;10.23;;;;;;;-0.86;100.00;98134.53;5055161;28;20029;-67
2024/02/04 06:51:25;;;;;;;17.03;9.00;;;;;;;-1.02;100.00;98107.31;5054840;28;20041;-70
2024/02/04 06:53:50;;;;;;;21.80;9.03;;;;;;;-0.75;100.00;98139.47;5054704;28;20067;-67
2024/02/04 06:56:16;;;;;;;18.10;8.07;;;;;;;-1.03;100.00;98084.78;5052974;28;20089;-67
2024/02/04 06:58:42;;;;;;;22.60;8.53;;;;;;;-0.60;100.00;98140.53;5053296;28;20049;-69
2024/02/04 07:01:08;;;;;;;18.90;8.20;;;;;;;-0.83;100.00;98108.09;5054095;28;20037;-70
2024/02/04 07:03:33;;;;;;;24.37;9.20;;;;;;;-0.70;100.00;98119.75;5054344;28;20264;-67
2024/02/04 07:05:59;;;;;;;21.07;9.43;;;;;;;-0.69;100.00;98121.38;5053843;28;20029;-67
2024/02/04 07:08:25;;;;;;;17.27;8.53;;;;;;;-1.25;100.00;98035.69;5051071;28;20033;-69
2024/02/04 07:10:51;;;;;;;21.23;9.53;;;;;;;-0.65;100.00;98127.09;5053423;28;20250;-69
2024/02/04 07:13:23;;;;;;;19.47;9.03;;;;;;;-0.63;100.00;98115.50;5053243;28;20339;-71
2024/02/04 07:15:49;;;;;;;28.53;11.90;;;;;;;-0.71;100.00;98102.41;5047018;28;20041;-69
2024/02/04 07:18:16;;;;;;;16.97;9.67;;;;;;;-0.58;100.00;98120.28;5043165;28;20309;-72
2024/02/04 07:20:42;;;;;;;14.83;7.53;;;;;;;-0.81;100.00;98070.38;5036673;28;20496;-72
2024/02/04 07:23:07;;;;;;;21.33;8.50;;;;;;;-0.71;100.00;98101.59;5057417;28;20289;-70
2024/02/04 07:25:34;;;;;;;17.80;9.17;;;;;;;-0.71;100.00;98097.19;5053296;28;20378;-69
2024/02/04 07:28:00;;;;;;;17.03;8.30;;;;;;;-0.53;100.00;98120.66;5050379;28;20346;-70
2024/02/04 07:30:25;;;;;;;14.20;7.80;;;;;;;-0.63;100.00;98091.16;5050408;28;20282;-68
2024/02/04 07:32:51;;;;;;;19.03;7.87;;;;;;;-0.51;100.00;98116.06;5052493;28;20114;-68
2024/02/04 07:35:16;;;;;;;15.93;8.07;;;;;;;-0.43;100.00;98100.41;5052870;28;20091;-67
2024/02/04 07:37:42;;;;;;;12.60;7.53;;;;;;;-0.38;100.00;98077.22;5052794;28;20037;-68
2024/02/04 07:40:08;;;;;;;14.20;7.10;;;;;;;-0.01;100.00;98116.06;5051449;28;20039;-69
2024/02/04 07:42:33;;;;;;;13.13;6.50;;;;;;;0.03;100.00;98107.91;5053000;28;20036;-70
2024/02/04 07:44:59;;;;;;;10.93;5.67;;;;;;;0.01;100.00;98086.31;5053145;28;20032;-68
2024/02/04 07:47:25;;;;;;;14.00;6.43;;;;;;;0.03;100.00;98084.38;5051849;28;20047;-67
2024/02/04 07:49:51;;;;;;;14.20;5.80;;;;;;;0.10;100.00;98086.16;5052953;28;20032;-68
2024/02/04 07:52:17;;;;;;;18.07;5.70;;;;;;;0.28;100.00;98104.31;5052666;28;20122;-69
2024/02/04 07:54:46;;;;;;;11.37;5.20;;;;;;;0.29;100.00;98096.34;5053331;28;20366;-69
2024/02/04 07:57:12;;;;;;;16.10;5.73;;;;;;;0.45;100.00;98110.41;5053193;28;20040;-70
2024/02/04 07:59:38;;;;;;;13.20;5.97;;;;;;;0.38;100.00;98099.78;5052476;28;20299;-69
2024/02/04 08:02:03;;;;;;;13.60;6.00;;;;;;;0.40;100.00;98108.28;5052564;28;20268;-71
2024/02/04 08:04:32;;;;;;;13.10;5.27;;;;;;;0.09;100.00;98055.75;5051598;28;20492;-72
2024/02/04 08:06:58;;;;;;;12.75;5.10;;;;;;;0.39;100.00;98117.13;5051166;28;20129;-72
2024/02/04 08:09:24;;;;;;;7.77;4.20;;;;;;;0.25;100.00;98089.75;5050986;28;20504;-69
2024/02/04 08:11:49;;;;;;;9.77;4.83;;;;;;;0.24;100.00;98095.97;5051177;28;20260;-71
2024/02/04 08:14:17;;;;;;;8.10;3.80;;;;;;;0.40;100.00;98117.94;5052982;28;20040;-69
2024/02/04 08:16:43;;;;;;;9.53;4.30;;;;;;;0.35;100.00;98099.28;5035945;28;20037;-70
2024/02/04 08:19:15;;;;;;;12.87;4.43;;;;;;;0.45;100.00;98110.41;5052745;28;20311;-75
2024/02/04 08:21:43;;;;;;;;;;;;;;;0.55;100.00;98100.56;5059289;28;20279;-76
2024/02/04 08:24:11;;;;;;;12.73;4.43;;;;;;;0.52;100.00;98112.19;5061677;28;19939;-74
2024/02/04 08:26:37;;;;;;;8.45;5.00;;;;;;;0.24;100.00;98061.94;5073712;28;20272;-74
2024/02/04 08:29:02;;;;;;;7.93;3.67;;;;;;;0.49;100.00;98085.53;5072812;28;20031;-70
2024/02/04 08:31:30;;;;;;;8.97;4.43;;;;;;;0.39;100.00;98084.88;5066980;28;20043;-71
2024/02/04 08:33:58;;;;;;;7.07;3.87;;;;;;;0.41;100.00;98106.47;5065680;28;20037;-73
2024/02/04 08:36:23;;;;;;;8.18;3.95;;;;;;;0.25;100.00;98094.19;5064392;28;20276;-68
2024/02/04 08:38:49;;;;;;;6.23;3.77;;;;;;;0.23;100.00;98104.81;5066577;28;20055;-71
2024/02/04 08:41:14;;;;;;;6.90;3.63;;;;;;;-0.01;100.00;98073.38;5066535;28;20021;-73
2024/02/04 08:43:41;;;;;;;6.97;3.43;;;;;;;0.23;100.00;98099.56;5065206;28;20036;-70
2024/02/04 08:46:07;;;;;;;9.07;4.70;;;;;;;0.32;100.00;98107.47;5063653;28;20485;-70
2024/02/04 08:48:32;;;;;;;8.27;3.17;;;;;;;0.18;100.00;98082.72;5064962;28;20286;-75
2024/02/04 08:51:03;;;;;;;9.57;2.37;;;;;;;0.41;100.00;98109.09;5043007;28;20087;-72
2024/02/04 08:53:32;;;;;;;5.97;2.90;;;;;;;0.45;100.00;98102.56;5035320;28;20045;-73
2024/02/04 08:56:09;;;;;;;4.60;2.77;;;;;;;0.15;100.00;98062.13;5040693;28;20283;-71
2024/02/04 08:58:36;;;;;;;5.90;2.57;;;;;;;0.11;100.00;98055.59;5040572;28;20270;-75
2024/02/04 09:01:04;;;;;;;5.27;2.30;;;;;;;0.13;100.00;98070.13;5031122;28;20437;-75
2024/02/04 09:03:30;;;;;;;4.63;2.33;;;;;;;0.23;100.00;98090.91;5031906;28;20272;-71
2024/02/04 09:05:57;;;;;;;4.73;2.00;;;;;;;0.22;100.00;98090.09;5032109;28;20298;-74
2024/02/04 09:08:22;;;;;;;5.33;2.57;;;;;;;0.25;100.00;98099.41;5031687;28;20572;-73
2024/02/04 09:10:48;;;;;;;4.60;2.53;;;;;;;0.33;100.00;98096.00;5037337;28;20354;-74
2024/02/04 09:13:13;;;;;;;10.43;3.60;;;;;;;0.12;100.00;98065.06;5049601;28;20029;-76
2024/02/04 09:15:39;;;;;;;5.90;2.03;;;;;;;0.27;100.00;98086.97;5049773;28;20041;-77
2024/02/04 09:18:05;;;;;;;7.13;2.83;;;;;;;0.23;100.00;98076.03;5050984;28;20411;-74
2024/02/04 09:20:32;;;;;;;6.03;2.30;;;;;;;0.28;100.00;98092.06;5051688;28;20140;-74
2024/02/04 09:22:57;;;;;;;4.77;2.03;;;;;;;0.29;100.00;98085.06;5055195;28;20041;-70
2024/02/04 09:25:24;;;;;;;6.63;2.33;;;;;;;0.34;100.00;98089.78;5058818;28;20270;-72
2024/02/04 09:27:50;;;;;;;4.67;1.87;;;;;;;0.47;100.00;98103.19;5056528;28;20029;-73
2024/02/04 09:30:16;;;;;;;4.07;1.97;;;;;;;0.49;100.00;98086.34;5051064;28;20612;-72
2024/02/04 09:32:41;;;;;;;5.50;2.57;;;;;;;0.53;100.00;98099.91;5050715;28;20099;-71
2024/02/04 09:35:09;;;;;;;7.60;2.93;;;;;;;0.35;100.00;98057.41;5059004;28;20712;-71
2024/02/04 09:37:35;;;;;;;4.90;2.00;;;;;;;0.48;100.00;98076.84;5061781;28;20108;-70
2024/02/04 09:40:00;;;;;;;6.97;2.30;;;;;;;0.57;100.00;98090.75;5049014;28;20463;-73
2024/02/04 09:42:27;;;;;;;6.20;2.70;;;;;;;0.62;100.00;98104.19;5070998;28;20032;-72
2024/02/04 09:44:54;;;;;;;3.47;1.93;;;;;;;0.42;100.00;98069.66;5068666;28;20036;-70
2024/02/04 09:47:21;;;;;;;6.40;2.00;;;;;;;0.52;100.00;98078.16;5068887;28;20445;-70
2024/02/04 09:49:46;;;;;;;3.33;1.97;;;;;;;0.67;100.00;98088.81;5070171;28;20286;-72
2024/02/04 09:52:14;;;;;;;6.80;2.07;;;;;;;0.80;100.00;98091.72;5070538;28;20268;-73
2024/02/04 09:54:52;;;;;;;4.43;2.27;;;;;;;0.74;100.00;98079.28;5068487;28;20489;-73
2024/02/04 09:57:18;;;;;;;6.00;2.58;;;;;;;0.86;100.00;98098.91;5051140;28;20321;-74
2024/02/04 09:59:44;;;;;;;5.93;3.00;;;;;;;0.70;100.00;98071.94;5051319;28;20073;-74
2024/02/04 10:02:12;;;;;;;6.97;2.87;;;;;;;0.92;100.00;98093.03;5051552;28;20370;-72
2024/02/04 10:04:38;;;;;;;5.15;2.03;;;;;;;1.02;100.00;98099.88;5033362;28;20729;-72
2024/02/04 10:07:04;;;;;;;7.40;1.90;;;;;;;1.04;100.00;98087.44;5051307;28;20036;-71
2024/02/04 10:09:30;;;;;;;4.97;2.07;;;;;;;1.05;100.00;98070.72;5035908;28;20041;-71
2024/02/04 10:11:57;;;;;;;3.27;1.70;;;;;;;1.18;100.00;98082.31;5052824;28;20808;-74
2024/02/04 10:14:23;;;;;;;3.73;2.27;;;;;;;1.26;100.00;98094.59;5050732;28;20259;-69
2024/02/04 10:16:49;;;;;;;3.27;1.63;;;;;;;1.41;100.00;98095.50;5049358;28;20267;-72
2024/02/04 10:19:16;;;;;;;6.27;2.03;;;;;;;1.41;100.00;98092.88;5049344;28;20306;-69
2024/02/04 10:21:43;;;;;;;7.60;2.20;;;;;;;1.50;100.00;98097.13;5050743;28;20282;-69
2024/02/04 10:24:09;;;;;;;5.03;2.40;;;;;;;1.63;100.00;98107.06;5049173;28;20283;-69
2024/02/04 10:26:37;;;;;;;2.87;1.90;;;;;;;1.52;100.00;98113.50;5050319;28;20359;-70
2024/02/04 10:29:03;;;;;;;5.65;2.35;;;;;;;1.37;100.00;98082.91;5031701;28;20120;-69
2024/02/04 10:31:29;;;;;;;4.73;1.83;;;;;;;1.36;100.00;98079.47;5050307;28;20044;-73
2024/02/04 10:33:56;;;;;;;6.13;2.03;;;;;;;1.06;100.00;98051.38;5050172;28;20619;-76
2024/02/04 10:36:22;;;;;;;7.10;2.97;;;;;;;1.22;100.00;98095.91;5050636;28;20036;-72
2024/02/04 10:38:48;;;;;;;4.00;1.93;;;;;;;1.15;100.00;98097.53;5050781;28;20299;-70
2024/02/04 10:41:15;;;;;;;10.67;1.80;;;;;;;1.05;100.00;98068.91;5049142;28;20056;-76
2024/02/04 10:43:43;;;;;;;3.90;2.20;;;;;;;1.38;100.00;98111.56;5052598;28;20291;-70
2024/02/04 10:46:18;;;;;;;4.13;2.37;;;;;;;1.42;100.00;98105.00;5052413;28;20766;-71
2024/02/04 10:48:54;;;;;;;6.23;2.57;;;;;;;1.63;100.00;98112.31;5054260;28;20354;-70
2024/02/04 10:51:24;;;;;;;5.13;2.20;;;;;;;1.66;100.00;98108.53;5052599;28;20302;-70
2024/02/04 10:53:53;;;;;;;8.03;2.13;;;;;;;1.63;100.00;98114.13;5035594;28;20296;-69
2024/02/04 10:56:23;;;;;;;2.38;1.55;;;;;;;1.56;100.00;98093.00;5053148;28;20750;-70
2024/02/04 10:58:49;;;;;;;6.07;2.40;;;;;;;1.68;100.00;98103.94;5051736;28;20468;-72
2024/02/04 11:01:14;;;;;;;2.47;1.60;;;;;;;1.77;100.00;98103.72;5051928;28;20858;-70
2024/02/04 11:03:41;;;;;;;5.07;2.10;;;;;;;1.82;100.00;98106.66;5053307;28;20367;-65
2024/02/04 11:06:11;;;;;;;5.40;1.80;;;;;;;1.69;100.00;98060.97;5052645;28;20593;-68
2024/02/04 11:08:41;;;;;;;5.57;2.27;;;;;;;2.10;100.00;98117.50;5054296;28;20275;-73
2024/02/04 11:11:06;;;;;;;8.17;1.73;;;;;;;1.95;99.97;98090.34;5053169;28;20267;-71
2024/02/04 11:13:33;;;;;;;7.53;2.40;;;;;;;1.85;100.00;98098.44;5053226;28;20287;-73
2024/02/04 11:16:05;;;;;;;3.17;1.80;;;;;;;1.77;100.00;98108.16;5051909;28;20033;-72
2024/02/04 11:18:55;;;;;;;3.87;2.47;;;;;;;1.68;100.00;98110.00;5035237;28;20833;-71
2024/02/04 11:21:49;;;;;;;6.73;1.83;;;;;;;1.73;100.00;98112.91;5034649;28;20345;-71